sensor_id;sensor_type;location;lat;lon;timestamp;temperature;humidity
54558;DHT22;40452;50.080;20.040;2023-03-03T04:13:24;19.70;34.00
54558;DHT22;40452;50.080;20.040;2023-03-03T04:15:53;19.90;34.60
54558;DHT22;40452;50.080;20.040;2023-03-03T04:18:18;19.90;34.60
54558;DHT22;40452;50.080;20.040;2023-03-03T04:20:44;20.00;34.70
54558;DHT22;40452;50.080;20.040;2023-03-03T04:23:09;20.00;34.80
54558;DHT22;40452;50.080;20.040;2023-03-03T04:25:35;20.00;34.90
54558;DHT22;40452;50.080;20.040;2023-03-03T04:28:00;20.10;34.90
54558;DHT22;40452;50.080;20.040;2023-03-03T04:30:26;20.10;35.00
54558;DHT22;40452;50.080;20.040;2023-03-03T04:32:51;20.10;35.00
54558;DHT22;40452;50.080;20.040;2023-03-03T04:35:18;20.10;35.00
54558;DHT22;40452;50.080;20.040;2023-03-03T04:37:43;20.10;35.10
54558;DHT22;40452;50.080;20.040;2023-03-03T04:40:09;20.10;35.10
54558;DHT22;40452;50.080;20.040;2023-03-03T04:42:35;20.10;35.00
54558;DHT22;40452;50.080;20.040;2023-03-03T04:45:02;20.10;35.10
54558;DHT22;40452;50.080;20.040;2023-03-03T04:47:28;20.10;35.10
54558;DHT22;40452;50.080;20.040;2023-03-03T04:49:53;20.20;35.10
54558;DHT22;40452;50.080;20.040;2023-03-03T04:52:19;20.00;35.10
54558;DHT22;40452;50.080;20.040;2023-03-03T04:54:44;20.10;35.10
54558;DHT22;40452;50.080;20.040;2023-03-03T04:57:10;20.10;35.00
54558;DHT22;40452;50.080;20.040;2023-03-03T04:59:35;20.00;35.00
54558;DHT22;40452;50.080;20.040;2023-03-03T05:02:01;20.10;35.10
54558;DHT22;40452;50.080;20.040;2023-03-03T05:04:28;20.10;35.10
54558;DHT22;40452;50.080;20.040;2023-03-03T05:06:54;20.10;35.10
54558;DHT22;40452;50.080;20.040;2023-03-03T05:09:21;20.10;35.10
54558;DHT22;40452;50.080;20.040;2023-03-03T05:11:47;20.10;35.10
54558;DHT22;40452;50.080;20.040;2023-03-03T05:14:12;20.10;35.10
54558;DHT22;40452;50.080;20.040;2023-03-03T05:16:38;20.10;35.10
54558;DHT22;40452;50.080;20.040;2023-03-03T05:19:04;20.10;35.00
54558;DHT22;40452;50.080;20.040;2023-03-03T05:21:29;20.10;35.10
54558;DHT22;40452;50.080;20.040;2023-03-03T05:23:55;20.10;35.00
54558;DHT22;40452;50.080;20.040;2023-03-03T05:26:21;20.10;35.10
54558;DHT22;40452;50.080;20.040;2023-03-03T05:28:46;20.10;35.00
54558;DHT22;40452;50.080;20.040;2023-03-03T05:31:12;20.10;35.00
54558;DHT22;40452;50.080;20.040;2023-03-03T05:33:37;20.10;35.00
54558;DHT22;40452;50.080;20.040;2023-03-03T05:36:03;20.20;35.10
54558;DHT22;40452;50.080;20.040;2023-03-03T05:38:29;20.10;35.00
54558;DHT22;40452;50.080;20.040;2023-03-03T05:40:54;20.10;35.10
54558;DHT22;40452;50.080;20.040;2023-03-03T05:43:20;20.10;35.10
54558;DHT22;40452;50.080;20.040;2023-03-03T05:45:46;20.10;35.10
54558;DHT22;40452;50.080;20.040;2023-03-03T05:48:11;20.20;35.20
54558;DHT22;40452;50.080;20.040;2023-03-03T05:50:37;20.20;35.30
54558;DHT22;40452;50.080;20.040;2023-03-03T05:53:03;20.20;35.20
54558;DHT22;40452;50.080;20.040;2023-03-03T05:55:29;20.20;35.30
54558;DHT22;40452;50.080;20.040;2023-03-03T05:57:54;20.20;35.20
54558;DHT22;40452;50.080;20.040;2023-03-03T06:00:20;20.20;35.30
54558;DHT22;40452;50.080;20.040;2023-03-03T06:02:46;16.30;31.00
54558;DHT22;40452;50.080;20.040;2023-03-03T06:05:12;14.10;34.20
54558;DHT22;40452;50.080;20.040;2023-03-03T06:07:38;12.70;36.60
54558;DHT22;40452;50.080;20.040;2023-03-03T06:10:07;12.20;37.50
54558;DHT22;40452;50.080;20.040;2023-03-03T06:12:33;11.60;38.60
54558;DHT22;40452;50.080;20.040;2023-03-03T06:14:58;11.10;39.60
54558;DHT22;40452;50.080;20.040;2023-03-03T06:17:24;10.90;39.90
54558;DHT22;40452;50.080;20.040;2023-03-03T06:19:49;10.70;40.10
54558;DHT22;40452;50.080;20.040;2023-03-03T06:22:15;10.50;40.80
54558;DHT22;40452;50.080;20.040;2023-03-03T06:24:40;10.20;41.20
54558;DHT22;40452;50.080;20.040;2023-03-03T06:27:06;9.80;42.30
54558;DHT22;40452;50.080;20.040;2023-03-03T06:29:32;10.10;42.00
54558;DHT22;40452;50.080;20.040;2023-03-03T06:31:57;9.80;42.50
54558;DHT22;40452;50.080;20.040;2023-03-03T06:34:22;9.70;42.80
54558;DHT22;40452;50.080;20.040;2023-03-03T06:36:48;9.80;42.80
54558;DHT22;40452;50.080;20.040;2023-03-03T06:39:13;9.70;43.20
54558;DHT22;40452;50.080;20.040;2023-03-03T06:41:39;9.80;42.80
54558;DHT22;40452;50.080;20.040;2023-03-03T06:44:04;9.40;43.60
54558;DHT22;40452;50.080;20.040;2023-03-03T06:46:30;9.30;43.90
54558;DHT22;40452;50.080;20.040;2023-03-03T17:27:25;19.80;36.20
54558;DHT22;40452;50.080;20.040;2023-03-03T17:30:10;19.90;36.20
54558;DHT22;40452;50.080;20.040;2023-03-03T17:32:58;19.90;36.80
54558;DHT22;40452;50.080;20.040;2023-03-03T17:38:38;19.90;36.20
54558;DHT22;40452;50.080;20.040;2023-03-03T17:41:13;20.00;36.20
54558;DHT22;40452;50.080;20.040;2023-03-03T17:46:47;20.00;36.20
54558;DHT22;40452;50.080;20.040;2023-03-03T17:49:52;20.00;36.20
54558;DHT22;40452;50.080;20.040;2023-03-03T17:55:30;20.10;36.30
54558;DHT22;40452;50.080;20.040;2023-03-03T18:04:20;20.10;36.30
54558;DHT22;40452;50.080;20.040;2023-03-03T18:26:34;20.20;36.40
54558;DHT22;40452;50.080;20.040;2023-03-03T18:32:18;20.20;36.40
54558;DHT22;40452;50.080;20.040;2023-03-03T18:34:46;20.30;36.40
54558;DHT22;40452;50.080;20.040;2023-03-03T18:40:38;20.20;36.30
54558;DHT22;40452;50.080;20.040;2023-03-03T18:43:55;20.20;36.30
54558;DHT22;40452;50.080;20.040;2023-03-03T18:46:44;20.20;36.30
54558;DHT22;40452;50.080;20.040;2023-03-03T18:55:55;20.20;36.30
54558;DHT22;40452;50.080;20.040;2023-03-03T18:58:40;20.30;36.30
54558;DHT22;40452;50.080;20.040;2023-03-03T19:09:10;20.30;36.50
54558;DHT22;40452;50.080;20.040;2023-03-03T19:11:40;20.50;36.50
54558;DHT22;40452;50.080;20.040;2023-03-03T19:17:43;20.50;36.30
54558;DHT22;40452;50.080;20.040;2023-03-03T19:20:17;20.40;36.30
54558;DHT22;40452;50.080;20.040;2023-03-03T19:51:19;20.50;36.70
54558;DHT22;40452;50.080;20.040;2023-03-03T19:56:14;20.50;36.80
54558;DHT22;40452;50.080;20.040;2023-03-03T20:05:27;20.50;36.90
54558;DHT22;40452;50.080;20.040;2023-03-03T20:08:22;20.50;36.80
54558;DHT22;40452;50.080;20.040;2023-03-03T20:11:44;20.60;36.90
54558;DHT22;40452;50.080;20.040;2023-03-03T20:17:16;20.60;36.90
54558;DHT22;40452;50.080;20.040;2023-03-03T20:26:16;20.50;36.90
54558;DHT22;40452;50.080;20.040;2023-03-03T20:29:02;20.60;36.90
54558;DHT22;40452;50.080;20.040;2023-03-03T20:37:30;20.60;36.90
54558;DHT22;40452;50.080;20.040;2023-03-03T20:40:27;20.60;36.90
54558;DHT22;40452;50.080;20.040;2023-03-03T20:48:57;20.60;37.00
54558;DHT22;40452;50.080;20.040;2023-03-03T21:06:19;20.60;37.20
54558;DHT22;40452;50.080;20.040;2023-03-03T21:11:16;20.60;37.20
54558;DHT22;40452;50.080;20.040;2023-03-03T21:13:47;20.60;37.20
54558;DHT22;40452;50.080;20.040;2023-03-03T21:16:26;20.60;37.20
54558;DHT22;40452;50.080;20.040;2023-03-03T21:19:09;20.60;37.20
54558;DHT22;40452;50.080;20.040;2023-03-03T21:21:37;20.60;37.20
54558;DHT22;40452;50.080;20.040;2023-03-03T21:24:04;20.50;37.30
